Time;durP1;ratioP1;P1;durP2;ratioP2;P2;SDS_P1;SDS_P2;PMS_P1;PMS_P2;Temp;Humidity;BMP_temperature;BMP_pressure;BME280_temperature;BME280_humidity;BME280_pressure;Samples;Min_cycle;Max_cycle;Signal;HPM_P1;HPM_P2
2023/12/09 00:01:34;;;;;;;139.43;42.15;;;;;;;;;;5091752;28;20098;-74
2023/12/09 00:04:00;;;;;;;150.52;43.90;;;;;;;;;;5091998;28;20111;-73
2023/12/09 00:06:26;;;;;;;140.95;41.63;;;;;;;;;;5091369;28;20413;-75
2023/12/09 00:08:52;;;;;;;143.68;42.60;;;;;;;;;;5091178;28;20028;-72
2023/12/09 00:11:17;;;;;;;163.02;43.63;;;;;;;;;;5091131;28;20108;-74
2023/12/09 00:13:43;;;;;;;148.00;42.50;;;;;;;;;;5091097;28;20028;-74
2023/12/09 00:16:09;;;;;;;156.55;43.92;;;;;;;;;;5092601;28;20016;-73
2023/12/09 00:18:35;;;;;;;145.27;43.97;;;;;;;;;;5092152;28;20145;-74
2023/12/09 00:21:02;;;;;;;139.85;42.08;;;;;;;;;;5091726;28;20508;-75
2023/12/09 00:23:28;;;;;;;166.05;45.28;;;;;;;;;;5092581;28;20028;-74
2023/12/09 00:25:54;;;;;;;145.45;42.67;;;;;;;;;;5096241;28;20136;-73
2023/12/09 00:28:20;;;;;;;143.70;42.17;;;;;;;;;;5090763;28;20065;-73
2023/12/09 00:30:46;;;;;;;146.82;43.35;;;;;;;;;;5091058;28;20028;-73
2023/12/09 00:33:12;;;;;;;151.75;43.05;;;;;;;;;;5091358;28;20032;-74
2023/12/09 00:35:38;;;;;;;166.10;43.88;;;;;;;;;;5092018;28;20020;-74
2023/12/09 00:38:04;;;;;;;151.23;42.10;;;;;;;;;;5094589;28;20489;-73
2023/12/09 00:40:30;;;;;;;142.20;44.15;;;;;;;;;;5095922;28;20027;-73
2023/12/09 00:42:56;;;;;;;149.55;42.92;;;;;;;;;;5094754;28;20092;-73
2023/12/09 00:45:24;;;;;;;142.60;44.78;;;;;;;;;;5092079;28;20047;-74
2023/12/09 00:47:50;;;;;;;157.48;45.22;;;;;;;;;;5090384;28;20548;-74
2023/12/09 00:50:17;;;;;;;143.82;42.22;;;;;;;;;;5090708;28;20053;-74
2023/12/09 00:52:43;;;;;;;145.63;44.03;;;;;;;;;;5090544;28;20012;-74
2023/12/09 00:55:09;;;;;;;145.57;41.42;;;;;;;;;;5090784;28;20092;-74
2023/12/09 00:57:35;;;;;;;149.98;42.85;;;;;;;;;;5091689;28;20024;-74
2023/12/09 01:00:03;;;;;;;140.30;41.17;;;;;;;;;;5090412;28;20028;-73
2023/12/09 01:02:30;;;;;;;130.63;39.08;;;;;;;;;;5090241;28;20024;-73
2023/12/09 01:04:57;;;;;;;123.55;38.60;;;;;;;;;;5090606;28;20451;-72
2023/12/09 01:07:23;;;;;;;129.85;38.58;;;;;;;;;;5090422;28;20027;-72
2023/12/09 01:09:49;;;;;;;136.27;40.58;;;;;;;;;;5090156;28;20020;-72
2023/12/09 01:12:15;;;;;;;125.85;37.75;;;;;;;;;;5093878;28;20153;-73
2023/12/09 01:14:41;;;;;;;112.75;35.88;;;;;;;;;;5095549;28;20023;-74
2023/12/09 01:17:07;;;;;;;136.65;40.45;;;;;;;;;;5095419;28;20554;-73
2023/12/09 01:19:33;;;;;;;123.90;39.20;;;;;;;;;;5094497;28;20032;-72
2023/12/09 01:21:59;;;;;;;134.70;39.47;;;;;;;;;;5094524;28;20394;-73
2023/12/09 01:24:25;;;;;;;126.38;37.72;;;;;;;;;;5094748;28;20028;-74
2023/12/09 01:26:51;;;;;;;123.30;37.70;;;;;;;;;;5095617;28;20093;-73
2023/12/09 01:29:17;;;;;;;128.82;37.55;;;;;;;;;;5093662;28;20058;-73
2023/12/09 01:31:43;;;;;;;113.18;37.45;;;;;;;;;;5093758;28;20464;-74
2023/12/09 01:34:09;;;;;;;116.10;35.55;;;;;;;;;;5093611;28;20028;-73
2023/12/09 01:36:35;;;;;;;121.63;36.47;;;;;;;;;;5094182;28;20104;-74
2023/12/09 01:39:02;;;;;;;114.50;34.53;;;;;;;;;;5093931;28;20020;-74
2023/12/09 01:41:28;;;;;;;130.70;38.80;;;;;;;;;;5094292;28;20023;-74
2023/12/09 01:43:54;;;;;;;126.00;36.97;;;;;;;;;;5094574;28;20028;-74
2023/12/09 01:46:22;;;;;;;117.28;37.20;;;;;;;;;;5094338;28;20103;-74
2023/12/09 01:48:48;;;;;;;115.13;35.35;;;;;;;;;;5093956;28;20024;-73
2023/12/09 01:51:15;;;;;;;130.07;36.55;;;;;;;;;;5093956;28;20024;-73
2023/12/09 01:53:41;;;;;;;115.70;37.58;;;;;;;;;;5093567;28;20016;-73
2023/12/09 01:56:09;;;;;;;125.28;37.50;;;;;;;;;;5098653;28;20031;-74
2023/12/09 01:58:38;;;;;;;127.45;35.80;;;;;;;;;;5098449;28;20475;-74
2023/12/09 02:01:04;;;;;;;126.05;36.47;;;;;;;;;;5095300;28;20086;-74
2023/12/09 02:03:31;;;;;;;131.35;38.03;;;;;;;;;;5095672;28;20054;-74
2023/12/09 02:05:58;;;;;;;124.68;35.50;;;;;;;;;;5095626;28;20027;-74
2023/12/09 02:08:23;;;;;;;132.00;38.80;;;;;;;;;;5093467;28;20032;-74
2023/12/09 02:10:57;;;;;;;130.98;37.40;;;;;;;;;;5093778;28;20024;-73
2023/12/09 02:13:30;;;;;;;139.15;38.15;;;;;;;;;;5093861;28;20020;-73
2023/12/09 02:15:59;;;;;;;154.45;38.95;;;;;;;;;;5093790;28;20542;-71
2023/12/09 02:18:25;;;;;;;125.50;37.90;;;;;;;;;;5093344;28;20077;-74
2023/12/09 02:20:51;;;;;;;124.93;36.30;;;;;;;;;;5093335;28;20024;-72
2023/12/09 02:23:17;;;;;;;148.10;41.13;;;;;;;;;;5092712;28;20032;-73
2023/12/09 02:25:44;;;;;;;144.10;38.88;;;;;;;;;;5093708;28;20647;-72
2023/12/09 02:28:18;;;;;;;143.02;39.80;;;;;;;;;;5103459;28;20016;-73
2023/12/09 02:30:51;;;;;;;142.43;38.50;;;;;;;;;;5097953;28;20020;-74
2023/12/09 02:33:18;;;;;;;132.68;37.88;;;;;;;;;;5093706;28;20051;-74
2023/12/09 02:35:44;;;;;;;159.63;40.15;;;;;;;;;;5093394;28;20031;-73
2023/12/09 02:38:11;;;;;;;147.23;39.30;;;;;;;;;;5093198;28;20141;-74
2023/12/09 02:40:38;;;;;;;143.43;39.70;;;;;;;;;;5093159;28;20046;-74
2023/12/09 02:43:04;;;;;;;148.13;39.78;;;;;;;;;;5092658;28;20031;-73
2023/12/09 02:45:30;;;;;;;139.15;39.47;;;;;;;;;;5093060;28;20483;-75
2023/12/09 02:47:56;;;;;;;133.80;38.67;;;;;;;;;;5093055;28;20078;-74
2023/12/09 02:50:22;;;;;;;137.05;38.42;;;;;;;;;;5092938;28;20020;-73
2023/12/09 02:52:48;;;;;;;147.30;39.88;;;;;;;;;;5092935;28;20141;-73
2023/12/09 02:55:14;;;;;;;142.82;39.92;;;;;;;;;;5093145;28;20114;-73
2023/12/09 02:57:40;;;;;;;142.10;39.97;;;;;;;;;;5093108;28;20070;-74
2023/12/09 03:00:07;;;;;;;140.48;40.42;;;;;;;;;;5092817;28;20063;-74
2023/12/09 03:02:33;;;;;;;145.10;39.03;;;;;;;;;;5093885;28;20031;-75
2023/12/09 03:04:59;;;;;;;146.70;37.88;;;;;;;;;;5093877;28;20024;-73
2023/12/09 03:07:25;;;;;;;156.10;42.15;;;;;;;;;;5092889;28;20024;-74
2023/12/09 03:09:51;;;;;;;141.23;40.05;;;;;;;;;;5094328;28;20482;-75
2023/12/09 03:12:17;;;;;;;140.88;38.80;;;;;;;;;;5093538;28;20020;-73
2023/12/09 03:14:43;;;;;;;141.38;39.88;;;;;;;;;;5095171;28;20031;-73
2023/12/09 03:17:12;;;;;;;147.43;40.83;;;;;;;;;;5107105;28;20386;-73
2023/12/09 03:19:38;;;;;;;145.43;41.35;;;;;;;;;;5106609;28;20115;-74
2023/12/09 03:22:04;;;;;;;157.52;42.80;;;;;;;;;;5095246;28;20081;-74
2023/12/09 03:24:30;;;;;;;144.15;40.22;;;;;;;;;;5092168;28;20119;-73
2023/12/09 03:26:56;;;;;;;152.13;41.10;;;;;;;;;;5092979;28;20142;-72
2023/12/09 03:29:22;;;;;;;145.27;40.30;;;;;;;;;;5101148;28;20077;-72
2023/12/09 03:31:49;;;;;;;150.18;40.60;;;;;;;;;;5092967;28;20119;-72
2023/12/09 03:34:16;;;;;;;143.55;39.85;;;;;;;;;;5092004;28;20023;-73
2023/12/09 03:36:42;;;;;;;140.77;38.15;;;;;;;;;;5092816;28;20460;-73
2023/12/09 03:39:11;;;;;;;146.93;42.58;;;;;;;;;;5094565;28;20036;-73
2023/12/09 03:41:37;;;;;;;153.88;43.17;;;;;;;;;;5112181;28;20039;-74
2023/12/09 03:44:04;;;;;;;152.25;40.60;;;;;;;;;;5114432;28;20486;-74
2023/12/09 03:46:30;;;;;;;141.85;38.90;;;;;;;;;;5096350;28;20029;-73
2023/12/09 03:48:56;;;;;;;138.82;40.25;;;;;;;;;;5094797;28;20032;-73
2023/12/09 03:51:22;;;;;;;144.05;42.22;;;;;;;;;;5095587;28;20021;-73
2023/12/09 03:53:48;;;;;;;138.52;40.50;;;;;;;;;;5093394;28;20020;-74
2023/12/09 03:56:17;;;;;;;143.65;42.10;;;;;;;;;;5111935;28;20061;-73
2023/12/09 03:58:43;;;;;;;138.27;41.30;;;;;;;;;;5112983;28;20643;-74
2023/12/09 04:01:09;;;;;;;132.50;37.10;;;;;;;;;;5112803;28;20039;-74
2023/12/09 04:03:35;;;;;;;133.85;40.97;;;;;;;;;;5113439;28;20028;-73
2023/12/09 04:06:03;;;;;;;148.73;42.47;;;;;;;;;;5112680;28;20034;-73
2023/12/09 04:08:29;;;;;;;149.55;41.65;;;;;;;;;;5113200;28;20363;-72
2023/12/09 04:10:55;;;;;;;134.75;39.92;;;;;;;;;;5112529;28;20027;-75
2023/12/09 04:13:21;;;;;;;138.63;39.22;;;;;;;;;;5112652;28;20027;-72
2023/12/09 04:15:48;;;;;;;140.43;39.92;;;;;;;;;;5112981;28;20024;-72
2023/12/09 04:18:14;;;;;;;155.88;43.55;;;;;;;;;;5112427;28;20363;-72
2023/12/09 04:20:41;;;;;;;146.55;40.83;;;;;;;;;;5112663;28;20024;-72
2023/12/09 04:23:07;;;;;;;154.15;44.00;;;;;;;;;;5112372;28;20022;-73
2023/12/09 04:25:33;;;;;;;144.73;40.50;;;;;;;;;;5112365;28;20035;-72
2023/12/09 04:27:59;;;;;;;153.98;41.40;;;;;;;;;;5112361;28;20091;-73
2023/12/09 04:30:25;;;;;;;148.70;41.63;;;;;;;;;;5112379;28;20048;-72
2023/12/09 04:32:51;;;;;;;154.73;44.10;;;;;;;;;;5112270;28;20363;-75
2023/12/09 04:35:17;;;;;;;158.90;43.22;;;;;;;;;;5112766;28;20028;-75
2023/12/09 04:37:43;;;;;;;154.50;43.67;;;;;;;;;;5112675;28;20066;-73
2023/12/09 04:40:10;;;;;;;157.30;43.72;;;;;;;;;;5112597;28;20474;-74
2023/12/09 04:42:37;;;;;;;141.90;42.17;;;;;;;;;;5112954;28;20024;-75
2023/12/09 04:45:03;;;;;;;148.77;42.55;;;;;;;;;;5112419;28;20024;-74
2023/12/09 04:47:29;;;;;;;137.63;41.78;;;;;;;;;;5112517;28;20411;-74
2023/12/09 04:49:55;;;;;;;148.82;43.13;;;;;;;;;;5112552;28;20042;-74
2023/12/09 04:52:21;;;;;;;142.55;40.05;;;;;;;;;;5112153;28;20367;-73
2023/12/09 04:54:47;;;;;;;139.00;42.67;;;;;;;;;;5112310;28;20115;-75
2023/12/09 04:57:13;;;;;;;152.48;44.40;;;;;;;;;;5110940;28;20459;-74
2023/12/09 04:59:39;;;;;;;138.48;41.17;;;;;;;;;;5112261;28;20069;-74
2023/12/09 05:02:05;;;;;;;136.95;43.08;;;;;;;;;;5113044;28;20028;-75
2023/12/09 05:04:31;;;;;;;164.68;45.38;;;;;;;;;;5112704;28;20024;-73
2023/12/09 05:06:57;;;;;;;141.73;41.38;;;;;;;;;;5112579;28;20093;-76
2023/12/09 05:09:23;;;;;;;135.73;43.95;;;;;;;;;;5112761;28;20042;-78
2023/12/09 05:11:49;;;;;;;131.48;43.65;;;;;;;;;;5108732;28;20031;-77
2023/12/09 05:14:15;;;;;;;142.55;41.00;;;;;;;;;;5112370;28;20023;-75
2023/12/09 05:16:41;;;;;;;140.93;42.75;;;;;;;;;;5104698;28;20437;-76
2023/12/09 05:19:07;;;;;;;146.65;44.72;;;;;;;;;;5097185;28;20035;-75
2023/12/09 05:21:33;;;;;;;136.27;43.65;;;;;;;;;;5103517;28;20059;-76
2023/12/09 05:23:59;;;;;;;139.60;44.38;;;;;;;;;;5095493;28;20020;-74
2023/12/09 05:26:27;;;;;;;141.10;43.58;;;;;;;;;;5097703;28;20475;-75
2023/12/09 05:28:53;;;;;;;140.82;44.30;;;;;;;;;;5095799;28;20036;-75
2023/12/09 05:31:20;;;;;;;145.88;45.03;;;;;;;;;;5107056;28;20368;-74
2023/12/09 05:33:46;;;;;;;134.93;41.78;;;;;;;;;;5091507;28;20043;-74
2023/12/09 05:36:12;;;;;;;143.65;43.13;;;;;;;;;;5091335;28;20392;-74
2023/12/09 05:38:38;;;;;;;142.27;44.03;;;;;;;;;;5091224;28;20128;-75
2023/12/09 05:41:05;;;;;;;145.60;45.15;;;;;;;;;;5091464;28;20021;-75
2023/12/09 05:43:31;;;;;;;125.57;43.10;;;;;;;;;;5091190;28;20028;-73
2023/12/09 05:45:57;;;;;;;136.75;41.95;;;;;;;;;;5091521;28;20378;-74
2023/12/09 05:48:23;;;;;;;146.35;43.80;;;;;;;;;;5091390;28;20031;-76
2023/12/09 05:50:49;;;;;;;142.13;44.85;;;;;;;;;;5091585;28;20712;-73
2023/12/09 05:53:15;;;;;;;160.57;44.13;;;;;;;;;;5091259;28;20544;-73
2023/12/09 05:55:41;;;;;;;147.40;43.70;;;;;;;;;;5091321;28;20020;-75
2023/12/09 05:58:07;;;;;;;138.32;43.63;;;;;;;;;;5093070;28;20035;-74
2023/12/09 06:00:33;;;;;;;162.15;46.72;;;;;;;;;;5095177;28;20024;-73
2023/12/09 06:02:59;;;;;;;149.60;44.97;;;;;;;;;;5094830;28;20028;-73
2023/12/09 06:05:25;;;;;;;145.98;44.95;;;;;;;;;;5095127;28;20103;-74
2023/12/09 06:07:51;;;;;;;137.70;43.22;;;;;;;;;;5095281;28;20020;-73
2023/12/09 06:10:17;;;;;;;132.40;42.15;;;;;;;;;;5095976;28;20031;-74
2023/12/09 06:12:43;;;;;;;141.98;44.10;;;;;;;;;;5096837;28;20069;-73
2023/12/09 06:15:09;;;;;;;138.82;43.40;;;;;;;;;;5114850;28;20028;-74
2023/12/09 06:17:35;;;;;;;149.95;44.53;;;;;;;;;;5120375;28;20094;-74
2023/12/09 06:20:01;;;;;;;141.02;45.72;;;;;;;;;;5120089;28;20024;-74
2023/12/09 06:22:27;;;;;;;147.13;45.38;;;;;;;;;;5120188;28;20013;-73
2023/12/09 06:24:53;;;;;;;145.05;45.53;;;;;;;;;;5119928;28;20024;-74
2023/12/09 06:27:19;;;;;;;146.27;45.53;;;;;;;;;;5139982;28;20031;-73
2023/12/09 06:29:46;;;;;;;122.22;41.92;;;;;;;;;;5132621;28;20039;-73
2023/12/09 06:32:13;;;;;;;129.40;43.78;;;;;;;;;;5122776;28;20032;-76
2023/12/09 06:34:39;;;;;;;124.85;43.15;;;;;;;;;;5132113;28;20071;-74
2023/12/09 06:37:05;;;;;;;123.82;41.42;;;;;;;;;;5121324;28;20031;-74
2023/12/09 06:39:31;;;;;;;113.82;41.42;;;;;;;;;;5120158;28;20070;-74
2023/12/09 06:41:57;;;;;;;126.97;41.67;;;;;;;;;;5113043;28;20023;-74
2023/12/09 06:44:23;;;;;;;113.40;40.58;;;;;;;;;;5116562;28;20026;-74
2023/12/09 06:46:49;;;;;;;119.07;40.13;;;;;;;;;;5109482;28;20016;-75
2023/12/09 06:49:18;;;;;;;102.35;39.85;;;;;;;;;;5103775;28;20028;-74
2023/12/09 06:51:44;;;;;;;106.35;39.22;;;;;;;;;;5110993;28;20099;-74
2023/12/09 06:54:10;;;;;;;109.55;39.40;;;;;;;;;;5098393;28;20059;-73
2023/12/09 06:56:36;;;;;;;120.97;42.90;;;;;;;;;;5100836;28;20027;-74
2023/12/09 06:59:02;;;;;;;105.55;40.70;;;;;;;;;;5097052;28;20040;-75
2023/12/09 07:01:28;;;;;;;118.97;41.58;;;;;;;;;;5114069;28;20028;-75
2023/12/09 07:03:55;;;;;;;122.47;41.90;;;;;;;;;;5096994;28;20092;-74
2023/12/09 07:06:22;;;;;;;116.38;41.00;;;;;;;;;;5113636;28;20099;-76
2023/12/09 07:08:48;;;;;;;111.07;39.47;;;;;;;;;;5100681;28;20103;-72
2023/12/09 07:11:14;;;;;;;112.70;39.63;;;;;;;;;;5102446;28;20477;-73
2023/12/09 07:13:40;;;;;;;113.00;42.13;;;;;;;;;;5096577;28;20031;-76
2023/12/09 07:16:09;;;;;;;117.25;40.28;;;;;;;;;;5099619;28;20111;-72
2023/12/09 07:18:35;;;;;;;125.82;41.88;;;;;;;;;;5107652;28;20411;-72
2023/12/09 07:21:01;;;;;;;111.20;41.28;;;;;;;;;;5101589;28;20095;-74
2023/12/09 07:23:27;;;;;;;122.03;39.90;;;;;;;;;;5092994;28;20483;-74
2023/12/09 07:25:53;;;;;;;119.47;41.20;;;;;;;;;;5093472;28;20101;-73
2023/12/09 07:28:19;;;;;;;107.82;38.28;;;;;;;;;;5093489;28;20099;-73
2023/12/09 07:30:45;;;;;;;124.28;40.65;;;;;;;;;;5093156;28;20020;-73
2023/12/09 07:33:11;;;;;;;95.38;37.17;;;;;;;;;;5092952;28;20425;-71
2023/12/09 07:35:37;;;;;;;116.80;40.03;;;;;;;;;;5093072;28;20243;-72
2023/12/09 07:38:03;;;;;;;112.10;38.55;;;;;;;;;;5093205;28;20035;-72
2023/12/09 07:40:29;;;;;;;105.63;37.58;;;;;;;;;;5093109;28;20028;-72
2023/12/09 07:42:55;;;;;;;103.88;37.45;;;;;;;;;;5092858;28;20024;-72
2023/12/09 07:45:21;;;;;;;111.85;37.95;;;;;;;;;;5092742;28;20126;-72
2023/12/09 07:47:47;;;;;;;108.10;38.70;;;;;;;;;;5092878;28;20221;-72
2023/12/09 07:50:13;;;;;;;105.82;35.05;;;;;;;;;;5092887;28;20052;-72
2023/12/09 07:52:39;;;;;;;104.18;33.58;;;;;;;;;;5093931;28;20021;-73
2023/12/09 07:55:06;;;;;;;106.45;32.88;;;;;;;;;;5096675;28;20032;-72
2023/12/09 07:57:33;;;;;;;99.18;34.25;;;;;;;;;;5102431;28;20027;-73
2023/12/09 07:59:58;;;;;;;91.65;33.95;;;;;;;;;;5113771;28;20547;-73
2023/12/09 08:02:24;;;;;;;105.10;31.60;;;;;;;;;;5114300;28;20103;-73
2023/12/09 08:04:50;;;;;;;104.32;32.75;;;;;;;;;;5114002;28;20028;-74
2023/12/09 08:07:18;;;;;;;88.32;29.80;;;;;;;;;;5112757;28;20043;-72
2023/12/09 08:09:44;;;;;;;82.93;28.67;;;;;;;;;;5111248;28;20043;-72
2023/12/09 08:12:10;;;;;;;89.05;28.95;;;;;;;;;;5112674;28;20051;-72
2023/12/09 08:14:36;;;;;;;92.70;28.08;;;;;;;;;;5113834;28;20043;-73
2023/12/09 08:17:02;;;;;;;85.03;28.23;;;;;;;;;;5113238;28;20397;-73
2023/12/09 08:19:28;;;;;;;81.72;28.13;;;;;;;;;;5113357;28;20023;-73
2023/12/09 08:21:54;;;;;;;90.63;28.55;;;;;;;;;;5112937;28;20386;-74
2023/12/09 08:24:20;;;;;;;87.55;27.92;;;;;;;;;;5115449;28;20020;-73
2023/12/09 08:26:46;;;;;;;81.63;28.42;;;;;;;;;;5113790;28;20023;-74
2023/12/09 08:29:14;;;;;;;83.13;28.85;;;;;;;;;;5111096;28;20020;-72
2023/12/09 08:31:40;;;;;;;80.25;27.83;;;;;;;;;;5112218;28;20022;-72
2023/12/09 08:34:06;;;;;;;68.68;25.55;;;;;;;;;;5112540;28;20020;-74
2023/12/09 08:36:32;;;;;;;68.97;26.30;;;;;;;;;;5112488;28;20473;-74
2023/12/09 08:38:58;;;;;;;75.70;26.60;;;;;;;;;;5111657;28;20039;-73
2023/12/09 08:41:24;;;;;;;85.70;26.98;;;;;;;;;;5113138;28;20027;-73
2023/12/09 08:43:52;;;;;;;83.10;27.30;;;;;;;;;;5118284;28;20031;-72
2023/12/09 08:46:18;;;;;;;75.88;26.13;;;;;;;;;;5122573;28;20247;-74
2023/12/09 08:48:45;;;;;;;76.95;26.73;;;;;;;;;;5116368;28;20020;-74
2023/12/09 08:51:11;;;;;;;75.57;25.67;;;;;;;;;;5112852;28;20023;-74
2023/12/09 08:53:36;;;;;;;84.22;28.65;;;;;;;;;;5113909;28;20391;-74
2023/12/09 08:56:03;;;;;;;88.10;31.95;;;;;;;;;;5118767;28;20023;-73
2023/12/09 08:58:29;;;;;;;79.80;27.52;;;;;;;;;;5120466;28;20043;-74
2023/12/09 09:00:55;;;;;;;77.65;30.88;;;;;;;;;;5122491;28;20064;-74
2023/12/09 09:03:21;;;;;;;78.25;29.05;;;;;;;;;;5116095;28;20398;-75
2023/12/09 09:05:47;;;;;;;77.20;29.13;;;;;;;;;;5112408;28;20027;-74
2023/12/09 09:08:13;;;;;;;73.32;28.88;;;;;;;;;;5111886;28;20443;-73
2023/12/09 09:10:40;;;;;;;69.55;29.75;;;;;;;;;;5113824;28;20513;-75
2023/12/09 09:13:06;;;;;;;72.80;29.67;;;;;;;;;;5112426;28;20024;-75
2023/12/09 09:15:32;;;;;;;65.68;27.90;;;;;;;;;;5111238;28;20024;-74
2023/12/09 09:17:58;;;;;;;73.28;29.52;;;;;;;;;;5112859;28;20023;-73
2023/12/09 09:20:24;;;;;;;79.93;30.30;;;;;;;;;;5111763;28;20038;-74
2023/12/09 09:22:50;;;;;;;76.72;29.70;;;;;;;;;;5112000;28;20092;-75
2023/12/09 09:25:16;;;;;;;82.68;28.98;;;;;;;;;;5112731;28;20063;-73
2023/12/09 09:27:42;;;;;;;79.80;31.63;;;;;;;;;;5111800;28;20028;-73
2023/12/09 09:30:08;;;;;;;80.10;29.52;;;;;;;;;;5111430;28;20031;-72
2023/12/09 09:32:34;;;;;;;76.45;30.27;;;;;;;;;;5113042;28;20105;-71
2023/12/09 09:35:00;;;;;;;77.35;28.52;;;;;;;;;;5116419;28;20027;-73
2023/12/09 09:37:27;;;;;;;75.68;29.17;;;;;;;;;;5117054;28;20036;-73
2023/12/09 09:39:53;;;;;;;73.82;28.35;;;;;;;;;;5115237;28;20019;-74
2023/12/09 09:42:37;;;;;;;68.30;28.42;;;;;;;;;;5115996;28;20119;-73
2023/12/09 09:45:09;;;;;;;77.93;27.48;;;;;;;;;;5124451;28;20019;-73
2023/12/09 09:47:42;;;;;;;68.18;26.35;;;;;;;;;;5128973;28;20020;-73
2023/12/09 09:50:10;;;;;;;71.45;27.00;;;;;;;;;;5127568;28;20031;-73
2023/12/09 09:52:36;;;;;;;70.78;29.15;;;;;;;;;;5122710;28;20037;-71
2023/12/09 09:55:03;;;;;;;90.30;35.95;;;;;;;;;;5106708;28;20200;-72
2023/12/09 09:57:29;;;;;;;116.15;49.05;;;;;;;;;;5127501;28;20277;-73
2023/12/09 09:59:57;;;;;;;77.13;28.70;;;;;;;;;;5126620;28;20035;-73
2023/12/09 10:02:25;;;;;;;83.30;28.55;;;;;;;;;;5127878;28;20111;-73
2023/12/09 10:04:51;;;;;;;73.63;26.98;;;;;;;;;;5117724;28;20028;-73
2023/12/09 10:07:17;;;;;;;64.18;24.85;;;;;;;;;;5114612;28;20034;-73
2023/12/09 10:09:43;;;;;;;95.38;33.22;;;;;;;;;;5114790;28;20059;-72
2023/12/09 10:12:09;;;;;;;84.10;30.70;;;;;;;;;;5114709;28;20039;-71
2023/12/09 10:14:35;;;;;;;74.68;29.00;;;;;;;;;;5115682;28;20511;-73
2023/12/09 10:17:01;;;;;;;71.20;30.05;;;;;;;;;;5116473;28;20118;-73
2023/12/09 10:19:27;;;;;;;68.90;25.48;;;;;;;;;;5097567;28;20398;-76
2023/12/09 10:21:53;;;;;;;62.90;24.27;;;;;;;;;;5116055;28;20024;-75
2023/12/09 10:24:19;;;;;;;66.40;23.95;;;;;;;;;;5118286;28;20061;-75
2023/12/09 10:26:46;;;;;;;72.97;25.48;;;;;;;;;;5114931;28;20024;-73
2023/12/09 10:29:12;;;;;;;56.30;23.75;;;;;;;;;;5114233;28;20020;-72
2023/12/09 10:31:38;;;;;;;68.28;25.23;;;;;;;;;;5114680;28;20023;-73
2023/12/09 10:34:04;;;;;;;57.13;22.17;;;;;;;;;;5101249;28;20100;-74
2023/12/09 10:36:30;;;;;;;67.70;22.42;;;;;;;;;;5119190;28;20028;-74
2023/12/09 10:38:57;;;;;;;48.90;20.90;;;;;;;;;;5126857;28;20027;-73
2023/12/09 10:41:26;;;;;;;56.45;20.45;;;;;;;;;;5119007;28;20028;-72
2023/12/09 10:43:54;;;;;;;56.90;21.15;;;;;;;;;;5119056;28;20039;-74
2023/12/09 10:46:20;;;;;;;50.97;19.98;;;;;;;;;;5116186;28;20027;-74
2023/12/09 10:48:46;;;;;;;53.75;19.98;;;;;;;;;;5113995;28;20027;-73
2023/12/09 10:51:12;;;;;;;51.13;19.33;;;;;;;;;;5113878;28;20103;-73
2023/12/09 10:53:38;;;;;;;46.25;19.77;;;;;;;;;;5113861;28;20571;-73
2023/12/09 10:56:06;;;;;;;54.72;19.38;;;;;;;;;;5113872;28;20020;-73
2023/12/09 10:58:32;;;;;;;48.10;18.02;;;;;;;;;;5114096;28;20028;-73
2023/12/09 11:00:59;;;;;;;50.33;17.88;;;;;;;;;;5119954;28;20031;-73
2023/12/09 11:03:26;;;;;;;51.97;18.50;;;;;;;;;;5113384;28;20482;-76
2023/12/09 11:05:54;;;;;;;63.85;19.17;;;;;;;;;;5113683;28;20536;-73
2023/12/09 11:08:21;;;;;;;49.03;17.40;;;;;;;;;;5113879;28;20026;-74
2023/12/09 11:10:48;;;;;;;44.97;19.27;;;;;;;;;;5117380;28;20022;-74
2023/12/09 11:13:14;;;;;;;49.83;17.98;;;;;;;;;;5120705;28;20103;-73
2023/12/09 11:15:40;;;;;;;44.25;18.35;;;;;;;;;;5115249;28;20055;-75
2023/12/09 11:18:10;;;;;;;46.83;19.98;;;;;;;;;;5117574;28;20035;-74
2023/12/09 11:20:40;;;;;;;54.65;18.92;;;;;;;;;;5117645;28;20027;-74
2023/12/09 11:23:10;;;;;;;48.50;18.42;;;;;;;;;;5114885;28;20506;-75
2023/12/09 11:25:38;;;;;;;44.35;19.08;;;;;;;;;;5114477;28;20035;-74
2023/12/09 11:28:04;;;;;;;55.15;20.85;;;;;;;;;;5114694;28;20019;-74
2023/12/09 11:30:35;;;;;;;47.67;18.45;;;;;;;;;;5114433;28;20493;-73
2023/12/09 11:33:04;;;;;;;37.22;16.48;;;;;;;;;;5114183;28;20024;-73
2023/12/09 11:35:33;;;;;;;49.35;17.85;;;;;;;;;;5114081;28;20027;-73
2023/12/09 11:37:59;;;;;;;45.45;18.30;;;;;;;;;;5113690;28;20023;-76
2023/12/09 11:40:29;;;;;;;47.47;16.70;;;;;;;;;;5120304;28;20019;-74
2023/12/09 11:42:56;;;;;;;47.47;16.15;;;;;;;;;;5112269;28;20182;-74
2023/12/09 11:45:22;;;;;;;46.53;15.02;;;;;;;;;;5111741;28;20498;-76
2023/12/09 11:47:49;;;;;;;39.35;15.32;;;;;;;;;;5101149;28;20062;-75
2023/12/09 11:50:16;;;;;;;45.75;15.85;;;;;;;;;;5104034;28;20027;-74
2023/12/09 11:52:45;;;;;;;37.08;15.52;;;;;;;;;;5102955;28;20165;-74
2023/12/09 11:55:12;;;;;;;40.22;15.70;;;;;;;;;;5099743;28;20486;-75
2023/12/09 11:57:40;;;;;;;48.33;17.75;;;;;;;;;;5098149;28;20114;-77
2023/12/09 12:00:06;;;;;;;35.58;14.48;;;;;;;;;;5111715;28;20019;-78
2023/12/09 12:02:35;;;;;;;46.90;16.95;;;;;;;;;;5101993;28;20483;-77
2023/12/09 12:05:02;;;;;;;39.90;15.05;;;;;;;;;;5107586;28;20539;-78
2023/12/09 12:07:28;;;;;;;48.30;15.25;;;;;;;;;;5101477;28;20024;-76
2023/12/09 12:09:54;;;;;;;43.85;16.65;;;;;;;;;;5106841;28;20125;-78
2023/12/09 12:12:20;;;;;;;41.28;16.75;;;;;;;;;;5112677;28;20020;-76
2023/12/09 12:14:47;;;;;;;42.20;16.13;;;;;;;;;;5112631;28;20077;-76
2023/12/09 12:17:13;;;;;;;42.90;16.83;;;;;;;;;;5112364;28;20034;-73
2023/12/09 12:19:39;;;;;;;43.25;17.67;;;;;;;;;;5112054;28;20027;-73
2023/12/09 12:22:06;;;;;;;39.45;16.08;;;;;;;;;;5112814;28;20128;-72
2023/12/09 12:24:45;;;;;;;47.95;17.52;;;;;;;;;;5112276;28;20028;-75
2023/12/09 12:27:11;;;;;;;42.03;16.17;;;;;;;;;;5112765;28;20020;-75
2023/12/09 12:29:41;;;;;;;44.33;17.83;;;;;;;;;;5112137;28;20024;-73
2023/12/09 12:32:07;;;;;;;48.20;17.05;;;;;;;;;;5112016;28;20100;-72
2023/12/09 12:34:33;;;;;;;55.15;16.35;;;;;;;;;;5112685;28;20032;-75
2023/12/09 12:37:00;;;;;;;44.75;16.70;;;;;;;;;;5112560;28;20181;-73
2023/12/09 12:39:26;;;;;;;44.88;17.20;;;;;;;;;;5112306;28;20049;-74
2023/12/09 12:41:52;;;;;;;40.72;16.20;;;;;;;;;;5112320;28;20023;-73
2023/12/09 12:44:18;;;;;;;50.33;16.90;;;;;;;;;;5110758;28;20027;-73
2023/12/09 12:46:45;;;;;;;38.30;16.08;;;;;;;;;;5111433;28;20479;-75
2023/12/09 12:49:11;;;;;;;47.60;17.52;;;;;;;;;;5113336;28;20028;-75
2023/12/09 12:51:37;;;;;;;43.50;17.48;;;;;;;;;;5115855;28;20020;-76
2023/12/09 12:54:03;;;;;;;39.22;15.18;;;;;;;;;;5115012;28;20024;-75
2023/12/09 12:56:29;;;;;;;36.10;15.05;;;;;;;;;;5114035;28;20098;-73
2023/12/09 12:58:55;;;;;;;46.15;16.08;;;;;;;;;;5113144;28;20051;-77
2023/12/09 13:01:21;;;;;;;39.15;16.67;;;;;;;;;;5117451;28;20491;-75
2023/12/09 13:03:48;;;;;;;37.72;15.32;;;;;;;;;;5114063;28;20028;-73
2023/12/09 13:06:14;;;;;;;37.65;14.90;;;;;;;;;;5113569;28;20479;-74
2023/12/09 13:08:40;;;;;;;36.10;15.18;;;;;;;;;;5122765;28;20481;-76
2023/12/09 13:11:06;;;;;;;30.92;14.50;;;;;;;;;;5123225;28;20027;-74
2023/12/09 13:13:32;;;;;;;34.25;14.85;;;;;;;;;;5119209;28;20094;-73
2023/12/09 13:15:58;;;;;;;37.03;15.18;;;;;;;;;;5118133;28;20510;-72
2023/12/09 13:18:24;;;;;;;35.63;14.93;;;;;;;;;;5118252;28;20061;-73
2023/12/09 13:20:52;;;;;;;35.25;14.50;;;;;;;;;;5117194;28;20023;-73
2023/12/09 13:23:18;;;;;;;33.75;14.75;;;;;;;;;;5118630;28;20027;-74
2023/12/09 13:25:44;;;;;;;29.88;15.18;;;;;;;;;;5118888;28;20051;-74
2023/12/09 13:28:10;;;;;;;32.08;15.13;;;;;;;;;;5118635;28;20054;-72
2023/12/09 13:30:36;;;;;;;37.05;14.68;;;;;;;;;;5119140;28;20024;-74
2023/12/09 13:33:04;;;;;;;35.50;14.98;;;;;;;;;;5117447;28;20030;-75
2023/12/09 13:35:30;;;;;;;40.00;19.27;;;;;;;;;;5119409;28;20019;-74
2023/12/09 13:37:57;;;;;;;39.55;14.98;;;;;;;;;;5118930;28;20062;-74
2023/12/09 13:40:23;;;;;;;25.83;14.05;;;;;;;;;;5118628;28;20032;-75
2023/12/09 13:42:50;;;;;;;44.38;14.57;;;;;;;;;;5121896;28;20106;-75
2023/12/09 13:45:21;;;;;;;37.35;17.33;;;;;;;;;;5120434;28;20019;-74
2023/12/09 13:47:47;;;;;;;30.98;14.93;;;;;;;;;;5118477;28;20035;-76
2023/12/09 13:50:13;;;;;;;34.30;14.38;;;;;;;;;;5118304;28;20102;-76
2023/12/09 13:52:40;;;;;;;36.33;13.95;;;;;;;;;;5118830;28;20023;-77
2023/12/09 13:55:06;;;;;;;34.88;14.65;;;;;;;;;;5118681;28;20104;-75
2023/12/09 13:57:32;;;;;;;37.95;13.98;;;;;;;;;;5119199;28;20430;-75
2023/12/09 13:59:58;;;;;;;36.03;15.52;;;;;;;;;;5118254;28;20042;-76
2023/12/09 14:02:25;;;;;;;43.10;16.98;;;;;;;;;;5118416;28;20020;-75
2023/12/09 14:04:51;;;;;;;44.55;17.00;;;;;;;;;;5116414;28;20027;-76